Terminal Aerodrome Forecast
Issued by NWS

Home | Current Version | Previous Version | Text Only | Print | Product List | Glossary On
Versions: 1 2 3 4 5 6 7 8 9 10 11 12 13 14 15 16 17 18 19 20 21 22
000
FTUS43 KJKL 192300 RRA
TAFSME
TAF
KSME 192342Z 2000/2024 27005KT P6SM FEW050
     FM200500 25003KT P6SM VCSH BKN050
     FM200800 00000KT 4SM BR VCSH SCT025 BKN050
      TEMPO 2008/2011 1SM -TSRA BR SCT025CB BKN050
     FM201300 VRB04KT P6SM BKN050
     FM201800 26004KT P6SM VCTS SCT025CB BKN050=

USA.gov is the U.S. government's official web portal to all federal, state and local government web resources and services.